sensor_id;sensor_type;location;lat;lon;timestamp;temperature;humidity
10390;DHT22;5241;47.830;12.972;2024-01-25T00:00:47;8.10;99.90
10390;DHT22;5241;47.830;12.972;2024-01-25T00:03:13;8.20;99.90
10390;DHT22;5241;47.830;12.972;2024-01-25T00:05:38;8.20;99.90
10390;DHT22;5241;47.830;12.972;2024-01-25T00:08:04;8.10;99.90
10390;DHT22;5241;47.830;12.972;2024-01-25T00:10:29;8.20;99.90
10390;DHT22;5241;47.830;12.972;2024-01-25T00:12:55;8.20;99.90
10390;DHT22;5241;47.830;12.972;2024-01-25T00:15:21;8.20;99.90
10390;DHT22;5241;47.830;12.972;2024-01-25T00:17:46;8.10;99.90
10390;DHT22;5241;47.830;12.972;2024-01-25T00:20:12;8.10;99.90
10390;DHT22;5241;47.830;12.972;2024-01-25T00:22:37;8.20;99.90
10390;DHT22;5241;47.830;12.972;2024-01-25T00:25:04;8.20;99.90
10390;DHT22;5241;47.830;12.972;2024-01-25T00:27:29;8.20;99.90
10390;DHT22;5241;47.830;12.972;2024-01-25T00:29:55;8.20;99.90
10390;DHT22;5241;47.830;12.972;2024-01-25T00:32:21;8.30;99.90
10390;DHT22;5241;47.830;12.972;2024-01-25T00:34:47;8.40;99.90
10390;DHT22;5241;47.830;12.972;2024-01-25T00:37:12;8.40;99.90
10390;DHT22;5241;47.830;12.972;2024-01-25T00:39:38;8.30;99.90
10390;DHT22;5241;47.830;12.972;2024-01-25T00:42:05;8.30;99.90
10390;DHT22;5241;47.830;12.972;2024-01-25T00:44:31;8.20;99.90
10390;DHT22;5241;47.830;12.972;2024-01-25T00:46:57;8.20;99.90
10390;DHT22;5241;47.830;12.972;2024-01-25T00:49:23;8.30;99.90
10390;DHT22;5241;47.830;12.972;2024-01-25T00:51:49;8.30;99.90
10390;DHT22;5241;47.830;12.972;2024-01-25T00:54:16;8.20;99.90
10390;DHT22;5241;47.830;12.972;2024-01-25T00:56:42;8.20;99.90
10390;DHT22;5241;47.830;12.972;2024-01-25T00:59:08;8.20;99.90
10390;DHT22;5241;47.830;12.972;2024-01-25T01:01:33;8.20;99.90
10390;DHT22;5241;47.830;12.972;2024-01-25T01:03:59;8.20;99.90
10390;DHT22;5241;47.830;12.972;2024-01-25T01:06:25;8.20;99.90
10390;DHT22;5241;47.830;12.972;2024-01-25T01:08:51;8.10;99.90
10390;DHT22;5241;47.830;12.972;2024-01-25T01:11:18;8.10;99.90
10390;DHT22;5241;47.830;12.972;2024-01-25T01:13:43;8.10;99.90
10390;DHT22;5241;47.830;12.972;2024-01-25T01:16:09;8.00;99.90
10390;DHT22;5241;47.830;12.972;2024-01-25T01:18:34;7.90;99.90
10390;DHT22;5241;47.830;12.972;2024-01-25T01:21:00;7.90;99.90
10390;DHT22;5241;47.830;12.972;2024-01-25T01:23:26;8.00;99.90
10390;DHT22;5241;47.830;12.972;2024-01-25T01:25:51;8.00;99.90
10390;DHT22;5241;47.830;12.972;2024-01-25T01:28:17;8.00;99.90
10390;DHT22;5241;47.830;12.972;2024-01-25T01:30:42;8.00;99.90
10390;DHT22;5241;47.830;12.972;2024-01-25T01:33:08;7.90;99.90
10390;DHT22;5241;47.830;12.972;2024-01-25T01:35:34;8.00;99.90
10390;DHT22;5241;47.830;12.972;2024-01-25T01:38:00;8.00;99.90
10390;DHT22;5241;47.830;12.972;2024-01-25T01:40:25;8.00;99.90
10390;DHT22;5241;47.830;12.972;2024-01-25T01:42:51;8.00;99.90
10390;DHT22;5241;47.830;12.972;2024-01-25T01:45:16;8.10;99.90
10390;DHT22;5241;47.830;12.972;2024-01-25T01:47:42;8.20;99.90
10390;DHT22;5241;47.830;12.972;2024-01-25T01:50:09;8.10;99.90
10390;DHT22;5241;47.830;12.972;2024-01-25T01:52:35;8.20;99.90
10390;DHT22;5241;47.830;12.972;2024-01-25T01:55:01;8.20;99.90
10390;DHT22;5241;47.830;12.972;2024-01-25T01:57:27;8.20;99.90
10390;DHT22;5241;47.830;12.972;2024-01-25T01:59:53;8.20;99.90
10390;DHT22;5241;47.830;12.972;2024-01-25T02:02:19;8.20;99.90
10390;DHT22;5241;47.830;12.972;2024-01-25T02:04:44;8.20;99.90
10390;DHT22;5241;47.830;12.972;2024-01-25T02:07:11;8.20;99.90
10390;DHT22;5241;47.830;12.972;2024-01-25T02:09:37;8.30;99.90
10390;DHT22;5241;47.830;12.972;2024-01-25T02:12:03;8.30;99.90
10390;DHT22;5241;47.830;12.972;2024-01-25T02:14:30;8.30;99.90
10390;DHT22;5241;47.830;12.972;2024-01-25T02:16:56;8.30;99.90
10390;DHT22;5241;47.830;12.972;2024-01-25T02:19:21;8.30;99.90
10390;DHT22;5241;47.830;12.972;2024-01-25T02:21:47;8.20;99.90
10390;DHT22;5241;47.830;12.972;2024-01-25T02:24:13;8.20;99.90
10390;DHT22;5241;47.830;12.972;2024-01-25T02:26:39;8.10;99.90
10390;DHT22;5241;47.830;12.972;2024-01-25T02:29:04;8.10;99.90
10390;DHT22;5241;47.830;12.972;2024-01-25T02:31:31;8.10;99.90
10390;DHT22;5241;47.830;12.972;2024-01-25T02:33:56;8.10;99.90
10390;DHT22;5241;47.830;12.972;2024-01-25T02:36:22;8.10;99.90
10390;DHT22;5241;47.830;12.972;2024-01-25T02:38:48;8.10;99.90
10390;DHT22;5241;47.830;12.972;2024-01-25T02:41:14;8.10;99.90
10390;DHT22;5241;47.830;12.972;2024-01-25T02:43:39;8.20;99.90
10390;DHT22;5241;47.830;12.972;2024-01-25T02:46:05;8.10;99.90
10390;DHT22;5241;47.830;12.972;2024-01-25T02:48:31;8.10;99.90
10390;DHT22;5241;47.830;12.972;2024-01-25T02:50:57;8.10;99.90
10390;DHT22;5241;47.830;12.972;2024-01-25T02:53:22;8.10;99.90
10390;DHT22;5241;47.830;12.972;2024-01-25T02:55:48;8.20;99.90
10390;DHT22;5241;47.830;12.972;2024-01-25T02:58:13;8.20;99.90
10390;DHT22;5241;47.830;12.972;2024-01-25T03:00:39;8.20;99.90
10390;DHT22;5241;47.830;12.972;2024-01-25T03:03:04;8.20;99.90
10390;DHT22;5241;47.830;12.972;2024-01-25T03:05:30;8.20;99.90
10390;DHT22;5241;47.830;12.972;2024-01-25T03:07:55;8.30;99.90
10390;DHT22;5241;47.830;12.972;2024-01-25T03:10:21;8.20;99.90
10390;DHT22;5241;47.830;12.972;2024-01-25T03:12:46;8.20;99.90
10390;DHT22;5241;47.830;12.972;2024-01-25T03:15:12;8.20;99.90
10390;DHT22;5241;47.830;12.972;2024-01-25T03:17:38;8.10;99.90
10390;DHT22;5241;47.830;12.972;2024-01-25T03:20:03;8.10;99.90
10390;DHT22;5241;47.830;12.972;2024-01-25T03:22:29;8.20;99.90
10390;DHT22;5241;47.830;12.972;2024-01-25T03:24:55;8.20;99.90
10390;DHT22;5241;47.830;12.972;2024-01-25T03:27:20;8.20;99.90
10390;DHT22;5241;47.830;12.972;2024-01-25T03:29:46;8.10;99.90
10390;DHT22;5241;47.830;12.972;2024-01-25T03:32:11;8.10;99.90
10390;DHT22;5241;47.830;12.972;2024-01-25T03:34:37;8.10;99.90
10390;DHT22;5241;47.830;12.972;2024-01-25T03:37:03;8.10;99.90
10390;DHT22;5241;47.830;12.972;2024-01-25T03:39:29;8.10;99.90
10390;DHT22;5241;47.830;12.972;2024-01-25T03:41:54;8.10;99.90
10390;DHT22;5241;47.830;12.972;2024-01-25T03:44:20;8.10;99.90
10390;DHT22;5241;47.830;12.972;2024-01-25T03:46:46;8.10;99.90
10390;DHT22;5241;47.830;12.972;2024-01-25T03:49:11;8.00;99.90
10390;DHT22;5241;47.830;12.972;2024-01-25T03:51:37;7.90;99.90
10390;DHT22;5241;47.830;12.972;2024-01-25T03:54:02;8.00;99.90
10390;DHT22;5241;47.830;12.972;2024-01-25T03:56:28;7.90;99.90
10390;DHT22;5241;47.830;12.972;2024-01-25T03:58:53;7.90;99.90
10390;DHT22;5241;47.830;12.972;2024-01-25T04:01:19;7.80;99.90
10390;DHT22;5241;47.830;12.972;2024-01-25T04:03:45;7.90;99.90
10390;DHT22;5241;47.830;12.972;2024-01-25T04:06:10;7.90;99.90
10390;DHT22;5241;47.830;12.972;2024-01-25T04:08:36;7.90;99.90
10390;DHT22;5241;47.830;12.972;2024-01-25T04:11:01;7.90;99.90
10390;DHT22;5241;47.830;12.972;2024-01-25T04:13:27;7.80;99.90
10390;DHT22;5241;47.830;12.972;2024-01-25T04:15:52;7.80;99.90
10390;DHT22;5241;47.830;12.972;2024-01-25T04:18:18;7.80;99.90
10390;DHT22;5241;47.830;12.972;2024-01-25T04:20:44;7.80;99.90
10390;DHT22;5241;47.830;12.972;2024-01-25T04:23:09;7.80;99.90
10390;DHT22;5241;47.830;12.972;2024-01-25T04:25:35;7.90;99.90
10390;DHT22;5241;47.830;12.972;2024-01-25T04:28:01;7.90;99.90
10390;DHT22;5241;47.830;12.972;2024-01-25T04:30:27;7.90;99.90
10390;DHT22;5241;47.830;12.972;2024-01-25T04:32:52;7.90;99.90
10390;DHT22;5241;47.830;12.972;2024-01-25T04:35:18;7.90;99.90
10390;DHT22;5241;47.830;12.972;2024-01-25T04:37:43;7.90;99.90
10390;DHT22;5241;47.830;12.972;2024-01-25T04:40:09;8.10;99.90
10390;DHT22;5241;47.830;12.972;2024-01-25T04:42:35;8.10;99.90
10390;DHT22;5241;47.830;12.972;2024-01-25T04:45:00;8.10;99.90
10390;DHT22;5241;47.830;12.972;2024-01-25T04:47:26;8.10;99.90
10390;DHT22;5241;47.830;12.972;2024-01-25T04:49:51;8.20;99.90
10390;DHT22;5241;47.830;12.972;2024-01-25T04:52:17;8.20;99.90
10390;DHT22;5241;47.830;12.972;2024-01-25T04:54:42;8.20;99.90
10390;DHT22;5241;47.830;12.972;2024-01-25T04:57:08;8.10;99.90
10390;DHT22;5241;47.830;12.972;2024-01-25T04:59:33;8.20;99.90
10390;DHT22;5241;47.830;12.972;2024-01-25T05:01:59;8.10;99.90
10390;DHT22;5241;47.830;12.972;2024-01-25T05:04:25;8.10;99.90
10390;DHT22;5241;47.830;12.972;2024-01-25T05:06:51;8.10;99.90
10390;DHT22;5241;47.830;12.972;2024-01-25T05:09:16;8.10;99.90
10390;DHT22;5241;47.830;12.972;2024-01-25T05:11:42;8.20;99.90
10390;DHT22;5241;47.830;12.972;2024-01-25T05:14:07;8.20;99.90
10390;DHT22;5241;47.830;12.972;2024-01-25T05:16:33;8.20;99.90
10390;DHT22;5241;47.830;12.972;2024-01-25T05:19:00;8.20;99.90
10390;DHT22;5241;47.830;12.972;2024-01-25T05:21:26;8.20;99.90
10390;DHT22;5241;47.830;12.972;2024-01-25T05:23:51;8.10;99.90
10390;DHT22;5241;47.830;12.972;2024-01-25T05:26:17;7.90;99.90
10390;DHT22;5241;47.830;12.972;2024-01-25T05:28:43;7.90;99.90
10390;DHT22;5241;47.830;12.972;2024-01-25T05:31:08;7.70;99.90
10390;DHT22;5241;47.830;12.972;2024-01-25T05:33:41;7.60;99.90
10390;DHT22;5241;47.830;12.972;2024-01-25T05:36:07;7.50;99.90
10390;DHT22;5241;47.830;12.972;2024-01-25T05:38:33;7.50;99.90
10390;DHT22;5241;47.830;12.972;2024-01-25T05:40:59;7.40;99.90
10390;DHT22;5241;47.830;12.972;2024-01-25T05:43:25;7.40;99.90
10390;DHT22;5241;47.830;12.972;2024-01-25T05:45:50;7.30;99.90
10390;DHT22;5241;47.830;12.972;2024-01-25T05:48:16;7.30;99.90
10390;DHT22;5241;47.830;12.972;2024-01-25T05:50:41;7.40;99.90
10390;DHT22;5241;47.830;12.972;2024-01-25T05:53:07;7.40;99.90
10390;DHT22;5241;47.830;12.972;2024-01-25T05:55:33;7.40;99.90
10390;DHT22;5241;47.830;12.972;2024-01-25T05:57:58;7.30;99.90
10390;DHT22;5241;47.830;12.972;2024-01-25T06:00:24;7.40;99.90
10390;DHT22;5241;47.830;12.972;2024-01-25T06:02:49;7.40;99.90
10390;DHT22;5241;47.830;12.972;2024-01-25T06:05:15;7.50;99.90
10390;DHT22;5241;47.830;12.972;2024-01-25T06:07:40;7.50;99.90
10390;DHT22;5241;47.830;12.972;2024-01-25T06:10:07;7.50;99.90
10390;DHT22;5241;47.830;12.972;2024-01-25T06:12:33;7.50;99.90
10390;DHT22;5241;47.830;12.972;2024-01-25T06:14:58;7.40;99.90
10390;DHT22;5241;47.830;12.972;2024-01-25T06:17:24;7.40;99.90
10390;DHT22;5241;47.830;12.972;2024-01-25T06:19:49;7.40;99.90
10390;DHT22;5241;47.830;12.972;2024-01-25T06:22:15;7.40;99.90
10390;DHT22;5241;47.830;12.972;2024-01-25T06:24:42;7.30;99.90
10390;DHT22;5241;47.830;12.972;2024-01-25T06:27:11;7.30;99.90
10390;DHT22;5241;47.830;12.972;2024-01-25T06:29:36;7.20;99.90
10390;DHT22;5241;47.830;12.972;2024-01-25T06:32:02;7.20;99.90
10390;DHT22;5241;47.830;12.972;2024-01-25T06:34:28;7.20;99.90
10390;DHT22;5241;47.830;12.972;2024-01-25T06:36:57;7.20;99.90
10390;DHT22;5241;47.830;12.972;2024-01-25T06:39:25;7.20;99.90
10390;DHT22;5241;47.830;12.972;2024-01-25T06:41:51;7.10;99.90
10390;DHT22;5241;47.830;12.972;2024-01-25T06:44:16;7.10;99.90
10390;DHT22;5241;47.830;12.972;2024-01-25T06:46:42;7.20;99.90
10390;DHT22;5241;47.830;12.972;2024-01-25T06:49:08;7.10;99.90
10390;DHT22;5241;47.830;12.972;2024-01-25T06:51:34;7.10;99.90
10390;DHT22;5241;47.830;12.972;2024-01-25T06:53:59;7.10;99.90
10390;DHT22;5241;47.830;12.972;2024-01-25T06:56:25;7.00;99.90
10390;DHT22;5241;47.830;12.972;2024-01-25T06:58:50;7.00;99.90
10390;DHT22;5241;47.830;12.972;2024-01-25T07:01:22;6.90;99.90
10390;DHT22;5241;47.830;12.972;2024-01-25T07:03:48;6.60;99.90
10390;DHT22;5241;47.830;12.972;2024-01-25T07:06:16;6.40;99.90
10390;DHT22;5241;47.830;12.972;2024-01-25T07:08:42;6.40;99.90
10390;DHT22;5241;47.830;12.972;2024-01-25T07:11:08;6.30;99.90
10390;DHT22;5241;47.830;12.972;2024-01-25T07:13:33;6.30;99.90
10390;DHT22;5241;47.830;12.972;2024-01-25T07:15:59;6.30;99.90
10390;DHT22;5241;47.830;12.972;2024-01-25T07:18:24;6.30;99.90
10390;DHT22;5241;47.830;12.972;2024-01-25T07:20:50;6.30;99.90
10390;DHT22;5241;47.830;12.972;2024-01-25T07:23:17;6.30;99.90
10390;DHT22;5241;47.830;12.972;2024-01-25T07:25:42;6.40;99.90
10390;DHT22;5241;47.830;12.972;2024-01-25T07:28:08;6.50;99.90
10390;DHT22;5241;47.830;12.972;2024-01-25T07:30:33;6.50;99.90
10390;DHT22;5241;47.830;12.972;2024-01-25T07:32:59;6.50;99.90
10390;DHT22;5241;47.830;12.972;2024-01-25T07:35:25;6.40;99.90
10390;DHT22;5241;47.830;12.972;2024-01-25T07:37:50;6.40;99.90
10390;DHT22;5241;47.830;12.972;2024-01-25T07:40:16;6.40;99.90
10390;DHT22;5241;47.830;12.972;2024-01-25T07:42:42;6.40;99.90
10390;DHT22;5241;47.830;12.972;2024-01-25T07:45:08;6.40;99.90
10390;DHT22;5241;47.830;12.972;2024-01-25T07:47:33;6.40;99.90
10390;DHT22;5241;47.830;12.972;2024-01-25T07:50:00;6.40;99.90
10390;DHT22;5241;47.830;12.972;2024-01-25T07:52:25;6.40;99.90
10390;DHT22;5241;47.830;12.972;2024-01-25T07:54:51;6.40;99.90
10390;DHT22;5241;47.830;12.972;2024-01-25T07:57:18;6.40;99.90
10390;DHT22;5241;47.830;12.972;2024-01-25T07:59:44;6.40;99.90
10390;DHT22;5241;47.830;12.972;2024-01-25T08:02:10;6.50;99.90
10390;DHT22;5241;47.830;12.972;2024-01-25T08:04:35;6.60;99.90
10390;DHT22;5241;47.830;12.972;2024-01-25T08:07:01;6.70;99.90
10390;DHT22;5241;47.830;12.972;2024-01-25T08:09:27;6.70;99.90
10390;DHT22;5241;47.830;12.972;2024-01-25T08:11:52;6.70;99.90
10390;DHT22;5241;47.830;12.972;2024-01-25T08:14:18;6.70;99.90
10390;DHT22;5241;47.830;12.972;2024-01-25T08:16:44;6.60;99.90
10390;DHT22;5241;47.830;12.972;2024-01-25T08:19:09;6.60;99.90
10390;DHT22;5241;47.830;12.972;2024-01-25T08:21:35;6.60;99.90
10390;DHT22;5241;47.830;12.972;2024-01-25T08:24:01;6.60;99.90
10390;DHT22;5241;47.830;12.972;2024-01-25T08:26:27;6.50;99.90
10390;DHT22;5241;47.830;12.972;2024-01-25T08:28:53;6.40;99.90
10390;DHT22;5241;47.830;12.972;2024-01-25T08:31:18;6.40;99.90
10390;DHT22;5241;47.830;12.972;2024-01-25T08:33:44;6.40;99.90
10390;DHT22;5241;47.830;12.972;2024-01-25T08:36:13;6.40;99.90
10390;DHT22;5241;47.830;12.972;2024-01-25T08:38:38;6.50;99.90
10390;DHT22;5241;47.830;12.972;2024-01-25T08:41:04;6.40;99.90
10390;DHT22;5241;47.830;12.972;2024-01-25T08:43:30;6.50;99.90
10390;DHT22;5241;47.830;12.972;2024-01-25T08:45:55;6.70;99.90
10390;DHT22;5241;47.830;12.972;2024-01-25T08:48:21;6.80;99.90
10390;DHT22;5241;47.830;12.972;2024-01-25T08:50:46;6.80;99.90
10390;DHT22;5241;47.830;12.972;2024-01-25T08:53:12;6.90;99.90
10390;DHT22;5241;47.830;12.972;2024-01-25T08:55:37;7.00;99.90
10390;DHT22;5241;47.830;12.972;2024-01-25T08:58:04;7.10;99.90
10390;DHT22;5241;47.830;12.972;2024-01-25T09:00:29;7.20;99.90
10390;DHT22;5241;47.830;12.972;2024-01-25T09:02:55;7.30;99.90
10390;DHT22;5241;47.830;12.972;2024-01-25T09:05:20;7.30;99.90
10390;DHT22;5241;47.830;12.972;2024-01-25T09:07:46;7.40;99.90
10390;DHT22;5241;47.830;12.972;2024-01-25T09:10:12;7.40;99.90
10390;DHT22;5241;47.830;12.972;2024-01-25T09:12:38;7.40;99.90
10390;DHT22;5241;47.830;12.972;2024-01-25T09:15:05;7.40;99.90
10390;DHT22;5241;47.830;12.972;2024-01-25T09:17:30;7.40;99.90
10390;DHT22;5241;47.830;12.972;2024-01-25T09:19:56;7.30;99.90
10390;DHT22;5241;47.830;12.972;2024-01-25T09:22:24;7.40;99.90
10390;DHT22;5241;47.830;12.972;2024-01-25T09:24:49;7.40;99.90
10390;DHT22;5241;47.830;12.972;2024-01-25T09:27:15;7.50;99.90
10390;DHT22;5241;47.830;12.972;2024-01-25T09:29:42;7.60;99.90
10390;DHT22;5241;47.830;12.972;2024-01-25T09:32:08;7.70;99.90
10390;DHT22;5241;47.830;12.972;2024-01-25T09:34:37;7.70;99.90
10390;DHT22;5241;47.830;12.972;2024-01-25T09:37:06;7.70;99.90
10390;DHT22;5241;47.830;12.972;2024-01-25T09:39:32;7.70;99.90
10390;DHT22;5241;47.830;12.972;2024-01-25T09:41:58;7.70;99.90
10390;DHT22;5241;47.830;12.972;2024-01-25T09:44:24;7.80;99.90
10390;DHT22;5241;47.830;12.972;2024-01-25T09:46:51;7.80;99.90
10390;DHT22;5241;47.830;12.972;2024-01-25T09:49:16;7.80;99.90
10390;DHT22;5241;47.830;12.972;2024-01-25T09:51:43;7.90;99.90
10390;DHT22;5241;47.830;12.972;2024-01-25T09:54:09;7.90;99.90
10390;DHT22;5241;47.830;12.972;2024-01-25T09:56:34;7.90;99.90
10390;DHT22;5241;47.830;12.972;2024-01-25T09:59:01;7.90;99.90
10390;DHT22;5241;47.830;12.972;2024-01-25T10:01:27;8.10;99.90
10390;DHT22;5241;47.830;12.972;2024-01-25T10:03:52;8.10;99.90
10390;DHT22;5241;47.830;12.972;2024-01-25T10:06:18;8.10;99.90
10390;DHT22;5241;47.830;12.972;2024-01-25T10:08:44;8.00;99.90
10390;DHT22;5241;47.830;12.972;2024-01-25T10:11:10;8.00;99.90
10390;DHT22;5241;47.830;12.972;2024-01-25T10:13:47;8.30;99.90
10390;DHT22;5241;47.830;12.972;2024-01-25T10:16:17;8.50;99.90
10390;DHT22;5241;47.830;12.972;2024-01-25T10:18:45;8.40;99.90
10390;DHT22;5241;47.830;12.972;2024-01-25T10:21:11;8.60;99.90
10390;DHT22;5241;47.830;12.972;2024-01-25T10:23:41;8.90;99.90
10390;DHT22;5241;47.830;12.972;2024-01-25T10:26:09;9.00;99.90
10390;DHT22;5241;47.830;12.972;2024-01-25T10:28:35;9.20;99.90
10390;DHT22;5241;47.830;12.972;2024-01-25T10:31:01;9.50;99.90
10390;DHT22;5241;47.830;12.972;2024-01-25T10:33:30;9.10;99.90
10390;DHT22;5241;47.830;12.972;2024-01-25T10:35:56;9.00;99.90
10390;DHT22;5241;47.830;12.972;2024-01-25T10:38:30;8.80;99.90
10390;DHT22;5241;47.830;12.972;2024-01-25T10:40:59;8.80;99.90
10390;DHT22;5241;47.830;12.972;2024-01-25T10:43:25;8.90;99.90
10390;DHT22;5241;47.830;12.972;2024-01-25T10:45:51;8.90;99.90
10390;DHT22;5241;47.830;12.972;2024-01-25T10:48:21;9.00;99.90
10390;DHT22;5241;47.830;12.972;2024-01-25T10:50:47;9.00;99.90
10390;DHT22;5241;47.830;12.972;2024-01-25T10:53:15;9.00;99.90
10390;DHT22;5241;47.830;12.972;2024-01-25T10:55:40;9.30;99.90
10390;DHT22;5241;47.830;12.972;2024-01-25T10:58:07;9.40;99.90
10390;DHT22;5241;47.830;12.972;2024-01-25T11:00:36;9.30;99.90
10390;DHT22;5241;47.830;12.972;2024-01-25T11:03:03;9.50;99.90
10390;DHT22;5241;47.830;12.972;2024-01-25T11:05:30;9.70;99.90
10390;DHT22;5241;47.830;12.972;2024-01-25T11:07:56;10.00;99.90
10390;DHT22;5241;47.830;12.972;2024-01-25T11:10:24;10.10;99.90
10390;DHT22;5241;47.830;12.972;2024-01-25T11:13:00;10.00;99.90
10390;DHT22;5241;47.830;12.972;2024-01-25T11:15:36;9.90;99.90
10390;DHT22;5241;47.830;12.972;2024-01-25T11:18:04;10.20;99.90
10390;DHT22;5241;47.830;12.972;2024-01-25T11:20:33;10.00;99.90
10390;DHT22;5241;47.830;12.972;2024-01-25T11:23:01;10.10;99.90
10390;DHT22;5241;47.830;12.972;2024-01-25T11:25:29;10.20;99.90
10390;DHT22;5241;47.830;12.972;2024-01-25T11:27:55;10.30;99.90
10390;DHT22;5241;47.830;12.972;2024-01-25T11:30:21;10.30;99.90
10390;DHT22;5241;47.830;12.972;2024-01-25T11:32:47;10.20;99.90
10390;DHT22;5241;47.830;12.972;2024-01-25T11:35:13;10.40;99.90
10390;DHT22;5241;47.830;12.972;2024-01-25T11:37:45;10.40;99.90
10390;DHT22;5241;47.830;12.972;2024-01-25T11:40:12;10.10;99.90
10390;DHT22;5241;47.830;12.972;2024-01-25T11:42:42;9.80;99.90
10390;DHT22;5241;47.830;12.972;2024-01-25T11:45:10;9.80;99.90
10390;DHT22;5241;47.830;12.972;2024-01-25T11:47:37;9.90;99.90
10390;DHT22;5241;47.830;12.972;2024-01-25T11:50:03;10.00;99.90
10390;DHT22;5241;47.830;12.972;2024-01-25T11:52:28;9.80;99.90
10390;DHT22;5241;47.830;12.972;2024-01-25T11:54:54;9.70;99.90
10390;DHT22;5241;47.830;12.972;2024-01-25T11:57:20;9.80;99.90
10390;DHT22;5241;47.830;12.972;2024-01-25T11:59:46;9.90;99.90
10390;DHT22;5241;47.830;12.972;2024-01-25T12:02:13;10.20;99.90
10390;DHT22;5241;47.830;12.972;2024-01-25T12:04:39;10.00;99.90
10390;DHT22;5241;47.830;12.972;2024-01-25T12:07:05;9.90;99.90
10390;DHT22;5241;47.830;12.972;2024-01-25T12:09:31;10.00;99.90
10390;DHT22;5241;47.830;12.972;2024-01-25T12:11:56;10.00;99.90
10390;DHT22;5241;47.830;12.972;2024-01-25T12:14:24;9.70;99.90
10390;DHT22;5241;47.830;12.972;2024-01-25T12:16:49;9.50;99.90
10390;DHT22;5241;47.830;12.972;2024-01-25T12:19:15;9.30;99.90
10390;DHT22;5241;47.830;12.972;2024-01-25T12:21:44;9.20;99.90
10390;DHT22;5241;47.830;12.972;2024-01-25T12:24:10;9.20;99.90
10390;DHT22;5241;47.830;12.972;2024-01-25T12:26:36;9.10;99.90
10390;DHT22;5241;47.830;12.972;2024-01-25T12:29:02;9.10;99.90
10390;DHT22;5241;47.830;12.972;2024-01-25T12:31:28;9.00;99.90
10390;DHT22;5241;47.830;12.972;2024-01-25T12:33:54;9.00;99.90
10390;DHT22;5241;47.830;12.972;2024-01-25T12:36:19;9.10;99.90
10390;DHT22;5241;47.830;12.972;2024-01-25T12:38:45;9.20;99.90
10390;DHT22;5241;47.830;12.972;2024-01-25T12:41:10;9.20;99.90
10390;DHT22;5241;47.830;12.972;2024-01-25T12:43:36;9.10;99.90
10390;DHT22;5241;47.830;12.972;2024-01-25T12:46:02;9.10;99.90
10390;DHT22;5241;47.830;12.972;2024-01-25T12:48:27;9.10;99.90
10390;DHT22;5241;47.830;12.972;2024-01-25T12:50:53;9.00;99.90
10390;DHT22;5241;47.830;12.972;2024-01-25T12:53:18;8.90;99.90
10390;DHT22;5241;47.830;12.972;2024-01-25T12:55:44;8.90;99.90
10390;DHT22;5241;47.830;12.972;2024-01-25T12:58:10;8.90;99.90
10390;DHT22;5241;47.830;12.972;2024-01-25T13:00:35;8.90;99.90
10390;DHT22;5241;47.830;12.972;2024-01-25T13:03:01;8.90;99.90
10390;DHT22;5241;47.830;12.972;2024-01-25T13:05:29;8.90;99.90
10390;DHT22;5241;47.830;12.972;2024-01-25T13:08:02;9.00;99.90
10390;DHT22;5241;47.830;12.972;2024-01-25T13:10:30;9.10;99.90
10390;DHT22;5241;47.830;12.972;2024-01-25T13:12:57;9.10;99.90
10390;DHT22;5241;47.830;12.972;2024-01-25T13:15:23;9.30;99.90
10390;DHT22;5241;47.830;12.972;2024-01-25T13:17:49;9.30;99.90
10390;DHT22;5241;47.830;12.972;2024-01-25T13:20:14;9.40;99.90
10390;DHT22;5241;47.830;12.972;2024-01-25T13:22:40;9.50;99.90
10390;DHT22;5241;47.830;12.972;2024-01-25T13:25:06;9.70;99.90
10390;DHT22;5241;47.830;12.972;2024-01-25T13:27:32;9.70;99.90
10390;DHT22;5241;47.830;12.972;2024-01-25T13:29:58;9.70;99.90
10390;DHT22;5241;47.830;12.972;2024-01-25T13:32:23;9.70;99.90
10390;DHT22;5241;47.830;12.972;2024-01-25T13:34:49;9.60;99.90
10390;DHT22;5241;47.830;12.972;2024-01-25T13:37:15;9.60;99.90
10390;DHT22;5241;47.830;12.972;2024-01-25T13:39:40;9.60;99.90
10390;DHT22;5241;47.830;12.972;2024-01-25T13:42:06;9.70;99.90
10390;DHT22;5241;47.830;12.972;2024-01-25T13:44:32;9.60;99.90
10390;DHT22;5241;47.830;12.972;2024-01-25T13:46:57;9.40;99.90
10390;DHT22;5241;47.830;12.972;2024-01-25T13:49:24;9.50;99.90
10390;DHT22;5241;47.830;12.972;2024-01-25T13:51:49;9.50;99.90
10390;DHT22;5241;47.830;12.972;2024-01-25T13:54:15;9.60;99.90
10390;DHT22;5241;47.830;12.972;2024-01-25T13:56:40;9.50;99.90
10390;DHT22;5241;47.830;12.972;2024-01-25T13:59:06;9.50;99.90
10390;DHT22;5241;47.830;12.972;2024-01-25T14:01:31;9.50;99.90
10390;DHT22;5241;47.830;12.972;2024-01-25T14:03:57;9.60;99.90
10390;DHT22;5241;47.830;12.972;2024-01-25T14:06:23;9.60;99.90
10390;DHT22;5241;47.830;12.972;2024-01-25T14:08:48;9.50;99.90
10390;DHT22;5241;47.830;12.972;2024-01-25T14:11:15;9.60;99.90
10390;DHT22;5241;47.830;12.972;2024-01-25T14:13:42;9.60;99.90
10390;DHT22;5241;47.830;12.972;2024-01-25T14:16:07;9.60;99.90
10390;DHT22;5241;47.830;12.972;2024-01-25T14:18:39;9.50;99.90
10390;DHT22;5241;47.830;12.972;2024-01-25T14:21:05;9.50;99.90
10390;DHT22;5241;47.830;12.972;2024-01-25T14:23:31;9.40;99.90
10390;DHT22;5241;47.830;12.972;2024-01-25T14:25:56;9.40;99.90
10390;DHT22;5241;47.830;12.972;2024-01-25T14:28:22;9.40;99.90
10390;DHT22;5241;47.830;12.972;2024-01-25T14:30:48;9.40;99.90
10390;DHT22;5241;47.830;12.972;2024-01-25T14:33:14;9.40;99.90
10390;DHT22;5241;47.830;12.972;2024-01-25T14:35:39;9.50;99.90
10390;DHT22;5241;47.830;12.972;2024-01-25T14:38:05;9.40;99.90
10390;DHT22;5241;47.830;12.972;2024-01-25T14:40:31;9.40;99.90
10390;DHT22;5241;47.830;12.972;2024-01-25T14:42:56;9.30;99.90
10390;DHT22;5241;47.830;12.972;2024-01-25T14:45:22;9.30;99.90
10390;DHT22;5241;47.830;12.972;2024-01-25T14:47:48;9.20;99.90
10390;DHT22;5241;47.830;12.972;2024-01-25T14:50:13;9.10;99.90
10390;DHT22;5241;47.830;12.972;2024-01-25T14:52:39;9.00;99.90
10390;DHT22;5241;47.830;12.972;2024-01-25T14:55:05;9.00;99.90
10390;DHT22;5241;47.830;12.972;2024-01-25T14:57:30;9.00;99.90
10390;DHT22;5241;47.830;12.972;2024-01-25T14:59:56;8.90;99.90
10390;DHT22;5241;47.830;12.972;2024-01-25T15:02:22;8.90;99.90
10390;DHT22;5241;47.830;12.972;2024-01-25T15:04:47;8.90;99.90
10390;DHT22;5241;47.830;12.972;2024-01-25T15:07:13;8.90;99.90
10390;DHT22;5241;47.830;12.972;2024-01-25T15:09:39;8.80;99.90
10390;DHT22;5241;47.830;12.972;2024-01-25T15:12:05;8.80;99.90
10390;DHT22;5241;47.830;12.972;2024-01-25T15:14:31;8.70;99.90
10390;DHT22;5241;47.830;12.972;2024-01-25T15:16:56;8.60;99.90
10390;DHT22;5241;47.830;12.972;2024-01-25T15:19:22;8.60;99.90
10390;DHT22;5241;47.830;12.972;2024-01-25T15:21:48;8.50;99.90
10390;DHT22;5241;47.830;12.972;2024-01-25T15:24:13;8.40;99.90
10390;DHT22;5241;47.830;12.972;2024-01-25T15:26:42;8.40;99.90
10390;DHT22;5241;47.830;12.972;2024-01-25T15:29:08;8.30;99.90
10390;DHT22;5241;47.830;12.972;2024-01-25T15:31:34;8.20;99.90
10390;DHT22;5241;47.830;12.972;2024-01-25T15:33:59;8.10;99.90
10390;DHT22;5241;47.830;12.972;2024-01-25T15:36:25;8.00;99.90